This is the latest recevied weather packets stored in our database for station/object WD4HMR. If no packets are shown the sender has not sent any weather packets the latest 10 day(s).
| Time | Temp. | Humidity | Pressure | Rain* | Wind** | Luminosity | Snow |
|---|---|---|---|---|---|---|---|
| 1777231687 | 25.56° C | 66% | 1013.3 hPa | 0 mm | - | - | - |
| 1777231208 | 26.11° C | 65% | 1013.3 hPa | 0 mm | - | - | - |
| 1777230729 | 26.67° C | 67% | 1013.5 hPa | 0 mm | - | - | - |
| 1777230248 | 26.67° C | 67% | 1013.6 hPa | 0 mm | - | - | - |
| 1777229288 | 24.44° C | 74% | 1013.6 hPa | 0 mm | - | - | - |
| 1777228808 | 23.89° C | 76% | 1013.5 hPa | 0 mm | - | - | - |
| 1777228328 | 25° C | 76% | 1013.6 hPa | 0 mm | - | - | - |
| 1777227847 | 25.56° C | 71% | 1013.8 hPa | 0 mm | - | - | - |
| 1777226888 | 23.89° C | 77% | 1014 hPa | 0 mm | - | - | - |
| 1777226408 | 24.44° C | 75% | 1014 hPa | 0 mm | - | - | - |
| 1777225927 | 24.44° C | 76% | 1014 hPa | 0 mm | - | - | - |
| 1777225448 | 24.44° C | 74% | 1014.1 hPa | 0 mm | - | - | - |
| 1777224488 | 24.44° C | 76% | 1014.1 hPa | 0 mm | - | - | - |
| 1777224007 | 23.89° C | 76% | 1014.1 hPa | 0 mm | - | - | - |
| 1777223529 | 24.44° C | 75% | 1014.2 hPa | 0 mm | - | - | - |
| 1777223048 | 23.89° C | 76% | 1014.3 hPa | 0 mm | - | - | - |
| 1777222087 | 23.89° C | 78% | 1014.1 hPa | 0 mm | - | - | - |
| 1777221608 | 23.89° C | 78% | 1014 hPa | 0 mm | - | - | - |
| 1777221128 | 23.89° C | 78% | 1014 hPa | 0 mm | - | - | - |
| 1777220648 | 23.33° C | 81% | 1013.9 hPa | 0 mm | - | - | - |
| 1777219687 | 22.78° C | 81% | 1014 hPa | 0 mm | - | - | - |
| 1777219208 | 22.22° C | 82% | 1013.9 hPa | 0 mm | - | - | - |
| 1777218728 | 22.22° C | 84% | 1013.8 hPa | 0 mm | - | - | - |
| 1777218247 | 22.22° C | 83% | 1013.9 hPa | 0 mm | - | - | - |
| 1777217288 | 21.11° C | 86% | 1013.6 hPa | 0 mm | - | - | - |
* Rain latest hour (hover to see other rain measurements)
** Current wind speed in m/s (hover to see current wind gust speed)